createdAt,value
2023-03-05T00:02:10.374Z,33.88
2023-03-05T00:04:37.436Z,32.25
2023-03-05T00:07:05.451Z,31.65
2023-03-05T00:09:33.426Z,32.95
2023-03-05T00:12:01.925Z,33.53
2023-03-05T00:14:29.124Z,33.03
2023-03-05T00:16:56.099Z,32.28
2023-03-05T00:19:23.082Z,33.53
2023-03-05T00:21:50.136Z,31.48
2023-03-05T00:24:18.576Z,32.13
2023-03-05T00:26:46.327Z,33.85
2023-03-05T00:29:18.520Z,32.42
2023-03-05T00:31:46.246Z,33.70
2023-03-05T00:34:15.526Z,32.33
2023-03-05T00:36:45.123Z,32.58
2023-03-05T00:39:13.136Z,32.30
2023-03-05T00:41:40.359Z,30.77
2023-03-05T00:44:08.222Z,31.13
2023-03-05T00:46:35.865Z,32.38
2023-03-05T00:49:03.430Z,33.25
2023-03-05T00:51:30.755Z,32.50
2023-03-05T00:53:57.801Z,32.15
2023-03-05T00:56:25.044Z,33.03
2023-03-05T00:58:53.369Z,32.67
2023-03-05T01:01:20.568Z,31.45
2023-03-05T01:03:47.672Z,31.65
2023-03-05T01:06:17.051Z,32.40
2023-03-05T01:08:45.261Z,31.50
2023-03-05T01:11:12.540Z,33.13
2023-03-05T01:13:40.038Z,33.22
2023-03-05T01:16:07.941Z,33.33
2023-03-05T01:18:35.088Z,32.83
2023-03-05T01:21:02.125Z,33.20
2023-03-05T01:23:29.124Z,31.38
2023-03-05T01:26:00.522Z,32.80
2023-03-05T01:28:28.545Z,33.88
2023-03-05T01:30:55.691Z,32.13
2023-03-05T01:33:22.654Z,32.40
2023-03-05T01:35:50.074Z,32.60
2023-03-05T01:38:17.324Z,33.47
2023-03-05T01:40:45.093Z,35.13
2023-03-05T01:43:12.100Z,32.70
2023-03-05T01:46:00.088Z,32.92
2023-03-05T01:48:27.648Z,33.08
2023-03-05T01:50:54.861Z,31.60
2023-03-05T01:53:21.927Z,33.50
2023-03-05T01:55:49.318Z,33.25
2023-03-05T01:58:17.077Z,31.65
2023-03-05T02:00:47.119Z,34.00
2023-03-05T02:03:15.069Z,32.67
2023-03-05T02:05:46.036Z,32.67
2023-03-05T02:08:19.003Z,31.95
2023-03-05T02:10:49.775Z,31.73
2023-03-05T02:13:25.881Z,33.28
2023-03-05T02:15:55.658Z,31.90
2023-03-05T02:18:23.437Z,34.22
2023-03-05T02:21:11.501Z,31.05
2023-03-05T02:23:39.692Z,31.20
2023-03-05T02:26:10.079Z,31.23
2023-03-05T02:28:44.387Z,32.67
2023-03-05T02:31:16.360Z,32.20
2023-03-05T02:33:44.185Z,33.67
2023-03-05T02:36:12.237Z,31.67
2023-03-05T02:38:42.661Z,31.15
2023-03-05T02:41:10.485Z,31.65
2023-03-05T02:43:38.124Z,32.95
2023-03-05T02:46:05.808Z,31.88
2023-03-05T02:48:33.168Z,31.63
2023-03-05T02:51:02.260Z,31.88
2023-03-05T02:53:29.244Z,31.73
2023-03-05T02:55:56.749Z,29.80
2023-03-05T02:58:24.260Z,33.00
2023-03-05T03:00:51.957Z,32.97
2023-03-05T03:03:19.511Z,32.05
2023-03-05T03:05:46.463Z,32.58
2023-03-05T03:08:13.465Z,31.50
2023-03-05T03:10:40.501Z,31.13
2023-03-05T03:13:07.576Z,31.85
2023-03-05T03:15:34.834Z,32.13
2023-03-05T03:18:01.814Z,31.88
2023-03-05T03:20:28.734Z,32.88
2023-03-05T03:22:55.732Z,30.90
2023-03-05T03:25:23.329Z,31.02
2023-03-05T03:27:52.378Z,31.88
2023-03-05T03:30:19.373Z,31.27
2023-03-05T03:32:46.353Z,32.72
2023-03-05T03:35:13.620Z,32.33
2023-03-05T03:37:40.907Z,33.15
2023-03-05T03:40:08.548Z,33.38
2023-03-05T03:42:35.770Z,32.03
2023-03-05T03:45:02.904Z,32.20
2023-03-05T03:47:31.158Z,31.63
2023-03-05T03:49:59.057Z,31.08
2023-03-05T03:52:26.955Z,32.60
2023-03-05T03:54:55.741Z,32.33
2023-03-05T03:57:22.807Z,32.55
2023-03-05T03:59:51.114Z,31.60
2023-03-05T04:02:18.619Z,32.38
2023-03-05T04:04:45.657Z,31.58
2023-03-05T04:07:12.842Z,31.60
2023-03-05T04:09:39.936Z,31.02
2023-03-05T04:12:07.326Z,32.92
2023-03-05T04:14:34.405Z,30.52
2023-03-05T04:17:01.468Z,31.80
2023-03-05T04:19:30.710Z,31.67
2023-03-05T04:21:59.148Z,32.38
2023-03-05T04:24:26.151Z,31.45
2023-03-05T04:26:53.716Z,32.58
2023-03-05T04:29:21.081Z,32.70
2023-03-05T04:31:48.090Z,34.20
2023-03-05T04:34:15.142Z,31.05
2023-03-05T04:36:42.116Z,30.98
2023-03-05T04:39:09.070Z,30.55
2023-03-05T04:41:36.013Z,31.67
2023-03-05T04:44:03.068Z,32.55
2023-03-05T04:46:30.155Z,32.38
2023-03-05T04:48:58.063Z,31.85
2023-03-05T04:51:25.299Z,32.90
2023-03-05T04:53:52.322Z,30.25
2023-03-05T04:56:19.409Z,33.95
2023-03-05T04:58:46.360Z,31.75
2023-03-05T05:01:14.452Z,33.10
2023-03-05T05:03:41.394Z,34.30
2023-03-05T05:06:08.390Z,32.92
2023-03-05T05:08:36.972Z,34.03
2023-03-05T05:11:06.433Z,32.97
2023-03-05T05:13:33.887Z,32.15
2023-03-05T05:16:01.171Z,31.75
2023-03-05T05:18:28.253Z,31.00
2023-03-05T05:20:55.331Z,33.20
2023-03-05T05:23:22.276Z,32.20
2023-03-05T05:25:59.673Z,33.72
2023-03-05T05:28:27.100Z,31.90
2023-03-05T05:30:54.676Z,34.15
2023-03-05T05:33:22.599Z,32.33
2023-03-05T05:35:49.873Z,33.90
2023-03-05T05:38:17.220Z,32.35
2023-03-05T05:40:44.413Z,32.63
2023-03-05T05:43:11.529Z,33.08
2023-03-05T05:45:38.944Z,32.35
2023-03-05T05:48:06.849Z,33.85
2023-03-05T05:50:33.839Z,33.15
2023-03-05T05:53:00.975Z,32.25
2023-03-05T05:55:27.996Z,33.17
2023-03-05T05:57:55.033Z,31.00
2023-03-05T06:00:22.402Z,31.80
2023-03-05T06:02:49.468Z,32.83
2023-03-05T06:05:16.519Z,32.28
2023-03-05T06:07:43.677Z,32.95
2023-03-05T06:10:11.268Z,31.77
2023-03-05T06:12:38.506Z,31.10
2023-03-05T06:15:06.190Z,30.63
2023-03-05T06:17:33.206Z,31.27
2023-03-05T06:20:01.038Z,30.02
2023-03-05T06:22:28.246Z,32.25
2023-03-05T06:24:55.264Z,31.25
2023-03-05T06:27:22.263Z,31.52
2023-03-05T06:29:53.237Z,31.23
2023-03-05T06:32:20.794Z,30.73
2023-03-05T06:34:47.821Z,31.13
2023-03-05T06:37:14.830Z,32.22
2023-03-05T06:39:41.859Z,33.13
2023-03-05T06:42:08.963Z,32.72
2023-03-05T06:44:39.647Z,32.30
2023-03-05T06:47:08.321Z,32.30
2023-03-05T06:49:35.300Z,32.45
2023-03-05T06:52:02.389Z,31.67
2023-03-05T06:54:29.416Z,31.42
2023-03-05T06:56:56.555Z,32.47
2023-03-05T06:59:23.732Z,32.03
2023-03-05T07:01:50.974Z,33.03
2023-03-05T07:04:18.237Z,32.70
2023-03-05T07:06:45.808Z,31.60
2023-03-05T07:09:15.616Z,33.72
2023-03-05T07:11:42.803Z,33.70
2023-03-05T07:14:09.744Z,32.38
2023-03-05T07:16:36.690Z,32.70
2023-03-05T07:19:06.511Z,32.10
2023-03-05T07:21:37.441Z,32.83
2023-03-05T07:24:06.891Z,33.10
2023-03-05T07:26:34.436Z,34.17
2023-03-05T07:29:01.846Z,32.45
2023-03-05T07:31:31.717Z,32.38
2023-03-05T07:34:00.562Z,33.47
2023-03-05T07:36:28.313Z,33.70
2023-03-05T07:38:55.260Z,33.92
2023-03-05T07:41:23.596Z,32.53
2023-03-05T07:43:53.255Z,37.22
2023-03-05T07:46:22.610Z,34.60
2023-03-05T07:48:49.712Z,34.95
2023-03-05T07:51:19.988Z,36.53
2023-03-05T07:53:49.066Z,33.60
2023-03-05T07:56:23.611Z,35.22
2023-03-05T07:58:51.044Z,35.58
2023-03-05T08:01:18.004Z,35.17
2023-03-05T08:03:45.111Z,36.65
2023-03-05T08:06:12.927Z,35.72
2023-03-05T08:08:39.912Z,37.03
2023-03-05T08:11:12.892Z,36.65
2023-03-05T08:13:40.300Z,38.30
2023-03-05T08:16:09.830Z,36.10
2023-03-05T08:18:37.021Z,38.13
2023-03-05T08:21:04.153Z,37.05
2023-03-05T08:23:31.201Z,36.72
2023-03-05T08:25:58.134Z,37.47
2023-03-05T08:28:25.029Z,37.75
2023-03-05T08:30:52.243Z,39.30
2023-03-05T08:33:19.486Z,36.78
2023-03-05T08:35:46.606Z,37.53
2023-03-05T08:38:13.664Z,38.80
2023-03-05T08:40:40.673Z,36.28
2023-03-05T08:43:08.126Z,37.63
2023-03-05T08:45:35.053Z,37.70
2023-03-05T08:48:08.780Z,37.25
2023-03-05T08:50:38.863Z,37.55
2023-03-05T08:53:06.030Z,36.55
2023-03-05T08:55:32.977Z,37.05
2023-03-05T08:57:59.974Z,36.83
2023-03-05T09:00:26.928Z,35.67
2023-03-05T09:02:53.943Z,33.75
2023-03-05T09:05:20.931Z,33.20
2023-03-05T09:07:47.873Z,30.67
2023-03-05T09:10:15.508Z,27.30
2023-03-05T09:12:42.490Z,27.92
2023-03-05T09:15:11.591Z,28.98
2023-03-05T09:17:41.702Z,26.27
2023-03-05T09:20:13.070Z,25.88
2023-03-05T09:22:40.726Z,25.95
2023-03-05T09:25:09.364Z,26.58
2023-03-05T09:27:37.484Z,26.20
2023-03-05T09:30:06.201Z,23.83
2023-03-05T09:32:33.579Z,24.48
2023-03-05T09:35:00.602Z,24.35
2023-03-05T09:37:29.366Z,26.27
2023-03-05T09:39:57.397Z,28.55
2023-03-05T09:42:42.339Z,27.38
2023-03-05T09:45:41.334Z,26.23
2023-03-05T09:48:24.129Z,25.90
2023-03-05T09:51:03.996Z,27.00
2023-03-05T09:53:59.842Z,26.50
2023-03-05T09:56:42.104Z,27.73
2023-03-05T09:59:19.119Z,25.52
2023-03-05T10:01:48.926Z,28.85
2023-03-05T10:04:23.717Z,29.83
2023-03-05T10:07:12.368Z,26.80
2023-03-05T10:09:54.360Z,29.50
2023-03-05T10:12:48.340Z,29.52
2023-03-05T10:15:32.016Z,29.48
2023-03-05T10:18:25.023Z,29.73
2023-03-05T10:21:15.792Z,29.95
2023-03-05T10:24:11.877Z,28.50
2023-03-05T10:27:05.390Z,28.70
2023-03-05T10:29:56.486Z,27.67
2023-03-05T10:32:29.046Z,28.75
2023-03-05T10:35:08.825Z,26.13
2023-03-05T10:38:07.320Z,25.63
2023-03-05T10:41:02.129Z,26.52
2023-03-05T10:43:47.221Z,25.85
2023-03-05T10:46:20.449Z,24.60
2023-03-05T10:48:54.577Z,28.02
2023-03-05T10:51:38.017Z,27.35
2023-03-05T10:54:29.665Z,28.00
2023-03-05T10:57:18.027Z,30.00
2023-03-05T10:59:54.793Z,28.77
2023-03-05T11:02:22.636Z,30.55
2023-03-05T11:04:51.296Z,29.88
2023-03-05T11:07:18.322Z,28.02
2023-03-05T11:10:00.543Z,28.17
2023-03-05T11:12:30.225Z,26.85
2023-03-05T11:15:12.204Z,28.60
2023-03-05T11:17:44.743Z,28.63
2023-03-05T11:20:27.087Z,28.15
2023-03-05T11:23:10.793Z,27.98
2023-03-05T11:26:06.511Z,27.23
2023-03-05T11:28:36.664Z,29.73
2023-03-05T11:31:07.721Z,29.27
2023-03-05T11:33:36.608Z,28.38
2023-03-05T11:36:12.072Z,28.70
2023-03-05T11:38:54.723Z,26.48
2023-03-05T11:41:28.231Z,27.38
2023-03-05T11:43:56.461Z,26.17
2023-03-05T11:46:25.592Z,26.23
2023-03-05T11:48:54.570Z,26.33
2023-03-05T11:51:28.868Z,27.75
2023-03-05T11:53:59.311Z,25.88
2023-03-05T11:56:26.191Z,26.40
2023-03-05T11:59:12.168Z,25.55
2023-03-05T12:01:51.224Z,25.65
2023-03-05T12:04:20.144Z,24.85
2023-03-05T12:06:49.298Z,25.35
2023-03-05T12:09:30.538Z,27.08
2023-03-05T12:12:04.165Z,26.40
2023-03-05T12:14:44.812Z,27.77
2023-03-05T12:17:42.632Z,27.80
2023-03-05T12:20:12.690Z,26.67
2023-03-05T12:22:42.015Z,27.98
2023-03-05T12:25:27.941Z,28.00
2023-03-05T12:27:55.519Z,28.25
2023-03-05T12:30:34.915Z,27.77
2023-03-05T12:33:04.121Z,29.20
2023-03-05T12:35:37.052Z,28.40
2023-03-05T12:38:26.521Z,28.35
2023-03-05T12:41:14.039Z,27.00
2023-03-05T12:43:42.505Z,26.27
2023-03-05T12:46:38.536Z,27.40
2023-03-05T12:49:21.265Z,24.65
2023-03-05T12:51:52.936Z,23.35
2023-03-05T12:54:34.046Z,24.50
2023-03-05T12:57:26.467Z,21.27
2023-03-05T13:00:04.991Z,20.42
2023-03-05T13:02:45.223Z,21.25
2023-03-05T13:05:29.845Z,21.60
2023-03-05T13:08:14.857Z,21.13
2023-03-05T13:10:43.638Z,21.60
2023-03-05T13:13:16.176Z,18.98
2023-03-05T13:15:49.763Z,20.70
2023-03-05T13:18:29.642Z,20.65
2023-03-05T13:21:06.191Z,19.65
2023-03-05T13:23:35.100Z,20.95
2023-03-05T13:26:15.616Z,19.60
2023-03-05T13:28:44.956Z,19.95
2023-03-05T13:31:17.681Z,17.50
2023-03-05T13:33:55.753Z,18.88
2023-03-05T13:36:25.998Z,18.30
2023-03-05T13:38:53.717Z,17.95
2023-03-05T13:41:24.426Z,18.33
2023-03-05T13:44:02.674Z,18.80
2023-03-05T13:46:40.066Z,23.67
2023-03-05T13:49:24.570Z,16.70
2023-03-05T13:51:56.744Z,17.42
2023-03-05T13:54:25.414Z,24.90
2023-03-05T13:56:58.855Z,25.00
2023-03-05T13:59:31.112Z,23.92
2023-03-05T14:02:15.809Z,24.33
2023-03-05T14:04:44.921Z,21.98
2023-03-05T14:07:20.994Z,23.55
2023-03-05T14:09:50.381Z,22.67
2023-03-05T14:12:32.541Z,23.63
2023-03-05T14:15:02.271Z,21.75
2023-03-05T14:18:11.068Z,22.60
2023-03-05T14:21:01.832Z,21.40
2023-03-05T14:23:46.757Z,21.08
2023-03-05T14:26:21.741Z,20.25
2023-03-05T14:28:57.384Z,20.42
2023-03-05T14:31:25.814Z,20.20
2023-03-05T14:33:54.043Z,19.23
2023-03-05T14:36:24.565Z,20.73
2023-03-05T14:38:53.451Z,19.08
2023-03-05T14:41:30.983Z,20.17
2023-03-05T14:43:58.216Z,16.38
2023-03-05T14:46:25.249Z,16.20
2023-03-05T14:48:52.285Z,17.63
2023-03-05T14:51:19.305Z,18.45
2023-03-05T14:53:48.122Z,19.17
2023-03-05T14:56:24.766Z,19.33
2023-03-05T14:58:52.426Z,18.58
2023-03-05T15:01:19.589Z,18.60
2023-03-05T15:03:46.692Z,17.13
2023-03-05T15:06:25.568Z,17.67
2023-03-05T15:08:53.548Z,17.38
2023-03-05T15:11:22.637Z,17.60
2023-03-05T15:13:52.294Z,17.23
2023-03-05T15:16:19.891Z,17.92
2023-03-05T15:18:47.432Z,18.00
2023-03-05T15:21:14.838Z,18.90
2023-03-05T15:23:41.845Z,19.58
2023-03-05T15:26:11.312Z,18.60
2023-03-05T15:28:39.377Z,18.20
2023-03-05T15:31:07.554Z,18.35
2023-03-05T15:33:34.854Z,18.10
2023-03-05T15:36:02.007Z,18.17
2023-03-05T15:38:29.128Z,17.98
2023-03-05T15:40:56.157Z,18.33
2023-03-05T15:43:23.468Z,17.17
2023-03-05T15:45:50.444Z,19.30
2023-03-05T15:48:17.418Z,18.05
2023-03-05T15:50:44.507Z,17.58
2023-03-05T15:53:16.187Z,18.85
2023-03-05T15:55:44.561Z,19.23
2023-03-05T15:58:14.864Z,18.25
2023-03-05T16:00:42.194Z,18.20
2023-03-05T16:03:09.163Z,17.50
2023-03-05T16:05:37.523Z,19.58
2023-03-05T16:08:05.060Z,19.27
2023-03-05T16:10:32.151Z,18.30
2023-03-05T16:13:06.664Z,19.15
2023-03-05T16:15:35.243Z,19.47
2023-03-05T16:18:05.980Z,19.17
2023-03-05T16:20:33.140Z,20.70
2023-03-05T16:23:00.092Z,19.80
2023-03-05T16:25:27.134Z,19.55
2023-03-05T16:27:54.275Z,19.42
2023-03-05T16:30:21.645Z,20.35
2023-03-05T16:32:48.853Z,18.88
2023-03-05T16:35:16.332Z,19.42
2023-03-05T16:37:43.608Z,19.83
2023-03-05T16:40:12.057Z,20.42
2023-03-05T16:42:39.149Z,18.90
2023-03-05T16:45:07.576Z,18.33
2023-03-05T16:47:34.827Z,18.95
2023-03-05T16:50:02.206Z,19.75
2023-03-05T16:52:30.047Z,19.40
2023-03-05T16:54:57.038Z,19.17
2023-03-05T16:57:25.654Z,19.13
2023-03-05T16:59:54.185Z,18.55
2023-03-05T17:02:21.260Z,19.63
2023-03-05T17:04:49.510Z,20.02
2023-03-05T17:07:17.297Z,19.27
2023-03-05T17:09:44.621Z,18.85
2023-03-05T17:12:11.637Z,18.77
2023-03-05T17:14:38.679Z,19.85
2023-03-05T17:17:05.614Z,18.75
2023-03-05T17:19:32.670Z,19.92
2023-03-05T17:21:59.661Z,21.48
2023-03-05T17:24:26.826Z,18.83
2023-03-05T17:26:53.913Z,20.35
2023-03-05T17:29:22.532Z,21.55
2023-03-05T17:31:53.172Z,21.00
2023-03-05T17:34:33.310Z,21.25
2023-03-05T17:37:03.095Z,22.63
2023-03-05T17:39:30.094Z,22.08
2023-03-05T17:41:57.040Z,22.55
2023-03-05T17:44:23.970Z,23.67
2023-03-05T17:46:50.921Z,22.70
2023-03-05T17:49:17.859Z,23.27
2023-03-05T17:51:44.865Z,22.15
2023-03-05T17:54:11.801Z,24.08
2023-03-05T17:56:38.787Z,22.70
2023-03-05T17:59:05.748Z,16.27
2023-03-05T18:01:34.773Z,21.75
2023-03-05T18:04:03.324Z,21.75
2023-03-05T18:06:32.220Z,21.73
2023-03-05T18:08:59.250Z,16.02
2023-03-05T18:11:27.609Z,16.02
2023-03-05T18:13:54.840Z,16.25
2023-03-05T18:16:23.445Z,10.75
2023-03-05T18:18:51.078Z,11.27
2023-03-05T18:21:24.190Z,10.52
2023-03-05T18:23:52.098Z,8.82
2023-03-05T18:26:19.088Z,11.15
2023-03-05T18:28:46.030Z,7.22
2023-03-05T18:31:14.191Z,8.73
2023-03-05T18:33:42.743Z,7.05
2023-03-05T18:36:11.353Z,5.22
2023-03-05T18:38:38.501Z,7.28
2023-03-05T18:41:06.432Z,6.70
2023-03-05T18:43:33.704Z,6.25
2023-03-05T18:46:04.835Z,5.80
2023-03-05T18:48:31.913Z,9.73
2023-03-05T18:50:58.966Z,7.13
2023-03-05T18:53:25.946Z,6.50
2023-03-05T18:55:53.335Z,6.68
2023-03-05T18:58:20.363Z,6.38
2023-03-05T19:00:48.012Z,6.70
2023-03-05T19:03:16.336Z,6.80
2023-03-05T19:05:43.554Z,7.47
2023-03-05T19:08:10.908Z,9.23
2023-03-05T19:10:38.002Z,7.53
2023-03-05T19:13:39.626Z,7.97
2023-03-05T19:16:18.681Z,6.55
2023-03-05T19:19:24.376Z,8.65
2023-03-05T19:21:59.677Z,7.50
2023-03-05T19:24:30.044Z,7.25
2023-03-05T19:27:00.309Z,7.43
2023-03-05T19:29:32.817Z,8.38
2023-03-05T19:32:00.188Z,7.75
2023-03-05T19:34:27.169Z,8.00
2023-03-05T19:36:54.115Z,8.27
2023-03-05T19:39:21.027Z,7.50
2023-03-05T19:41:48.135Z,8.68
2023-03-05T19:44:15.107Z,8.25
2023-03-05T19:46:43.503Z,8.85
2023-03-05T19:49:11.004Z,7.95
2023-03-05T19:51:39.816Z,8.63
2023-03-05T19:54:06.838Z,10.85
2023-03-05T19:56:33.888Z,8.65
2023-03-05T19:59:00.900Z,8.27
2023-03-05T20:01:28.297Z,7.72
2023-03-05T20:03:57.704Z,8.40
2023-03-05T20:06:26.415Z,9.38
2023-03-05T20:08:53.952Z,8.88
2023-03-05T20:11:21.383Z,8.18
2023-03-05T20:13:48.926Z,8.65
2023-03-05T20:16:31.893Z,9.25
2023-03-05T20:18:59.763Z,9.18
2023-03-05T20:21:30.474Z,9.45
2023-03-05T20:24:01.707Z,9.88
2023-03-05T20:26:29.521Z,9.43
2023-03-05T20:28:57.785Z,9.82
2023-03-05T20:31:26.886Z,9.38
2023-03-05T20:33:56.085Z,9.30
2023-03-05T20:36:24.219Z,9.10
2023-03-05T20:38:51.397Z,9.93
2023-03-05T20:41:20.790Z,9.68
2023-03-05T20:43:50.276Z,9.65
2023-03-05T20:46:18.851Z,10.10
2023-03-05T20:48:48.160Z,9.93
2023-03-05T20:51:24.637Z,10.05
2023-03-05T20:54:04.090Z,10.85
2023-03-05T20:56:32.530Z,11.05
2023-03-05T20:59:03.809Z,10.68
2023-03-05T21:01:33.243Z,10.43
2023-03-05T21:04:02.462Z,11.35
2023-03-05T21:06:30.797Z,10.65
2023-03-05T21:08:58.831Z,11.32
2023-03-05T21:11:26.257Z,10.15
2023-03-05T21:13:53.354Z,10.90
2023-03-05T21:16:23.898Z,11.00
2023-03-05T21:18:51.941Z,11.40
2023-03-05T21:21:19.446Z,11.65
2023-03-05T21:23:47.103Z,11.15
2023-03-05T21:26:14.772Z,11.25
2023-03-05T21:28:41.973Z,11.13
2023-03-05T21:31:14.223Z,12.02
2023-03-05T21:33:42.065Z,11.48
2023-03-05T21:36:09.344Z,11.15
2023-03-05T21:38:36.706Z,12.20
2023-03-05T21:41:05.303Z,11.43
2023-03-05T21:43:32.704Z,12.85
2023-03-05T21:46:01.494Z,12.75
2023-03-05T21:48:28.608Z,13.10
2023-03-05T21:50:55.903Z,12.60
2023-03-05T21:53:23.360Z,13.18
2023-03-05T21:56:25.481Z,13.35
2023-03-05T21:58:53.465Z,12.85
2023-03-05T22:01:21.394Z,12.52
2023-03-05T22:03:49.252Z,13.23
2023-03-05T22:06:17.895Z,12.73
2023-03-05T22:08:44.948Z,12.88
2023-03-05T22:11:16.629Z,13.10
2023-03-05T22:13:43.999Z,13.40
2023-03-05T22:16:11.656Z,13.32
2023-03-05T22:18:38.727Z,12.50
2023-03-05T22:21:05.891Z,13.60
2023-03-05T22:23:36.783Z,12.90
2023-03-05T22:26:07.828Z,13.27
2023-03-05T22:28:36.506Z,13.10
2023-03-05T22:31:03.579Z,12.30
2023-03-05T22:33:31.837Z,13.10
2023-03-05T22:35:58.897Z,11.77
2023-03-05T22:38:26.113Z,13.27
2023-03-05T22:40:53.352Z,11.40
2023-03-05T22:43:20.880Z,11.68
2023-03-05T22:45:48.246Z,11.25
2023-03-05T22:48:15.573Z,11.52
2023-03-05T22:50:46.422Z,10.90
2023-03-05T22:53:13.451Z,11.43
2023-03-05T22:55:41.925Z,11.48
2023-03-05T22:58:09.423Z,11.95
2023-03-05T23:00:36.858Z,11.90
2023-03-05T23:03:05.069Z,12.00
2023-03-05T23:05:32.201Z,11.45
2023-03-05T23:07:59.166Z,12.15
2023-03-05T23:10:28.745Z,11.23
2023-03-05T23:12:57.488Z,13.07
2023-03-05T23:15:33.924Z,13.30
2023-03-05T23:18:01.287Z,14.13
2023-03-05T23:20:31.397Z,12.57
2023-03-05T23:22:59.215Z,12.15
2023-03-05T23:25:29.461Z,11.88
2023-03-05T23:28:00.131Z,11.32
2023-03-05T23:30:29.123Z,12.68
2023-03-05T23:33:02.202Z,13.13
2023-03-05T23:35:32.673Z,12.98
2023-03-05T23:38:00.921Z,13.13
2023-03-05T23:40:40.817Z,14.48
2023-03-05T23:43:08.186Z,12.68
2023-03-05T23:45:35.556Z,12.43
2023-03-05T23:48:02.631Z,11.52
2023-03-05T23:50:35.300Z,11.77
2023-03-05T23:53:03.365Z,13.88
2023-03-05T23:55:34.702Z,13.40
2023-03-05T23:58:02.591Z,12.60
